createdAt,value
2018-12-08T00:01:01.103Z,9.27
2018-12-08T00:03:03.999Z,7.73
2018-12-08T00:05:06.886Z,10.77
2018-12-08T00:07:09.518Z,5.87
2018-12-08T00:09:12.221Z,5.43
2018-12-08T00:11:14.765Z,6.90
2018-12-08T00:13:17.295Z,7.30
2018-12-08T00:15:19.809Z,7.83
2018-12-08T00:17:22.456Z,5.67
2018-12-08T00:19:25.082Z,9.57
2018-12-08T00:21:27.690Z,8.27
2018-12-08T00:23:30.290Z,6.43
2018-12-08T00:25:32.853Z,7.73
2018-12-08T00:27:35.383Z,6.80
2018-12-08T00:29:37.936Z,7.00
2018-12-08T00:31:44.667Z,7.43
2018-12-08T00:33:47.195Z,8.83
2018-12-08T00:35:49.719Z,6.53
2018-12-08T00:37:52.276Z,9.90
2018-12-08T00:39:54.805Z,8.80
2018-12-08T00:41:57.371Z,6.03
2018-12-08T00:44:00.065Z,9.70
2018-12-08T00:46:02.723Z,5.33
2018-12-08T00:48:05.333Z,8.53
2018-12-08T00:50:08.052Z,12.27
2018-12-08T00:52:10.647Z,6.73
2018-12-08T00:54:13.175Z,6.53
2018-12-08T00:56:15.767Z,6.00
2018-12-08T00:58:18.314Z,6.97
2018-12-08T01:00:20.864Z,9.80
2018-12-08T01:02:23.554Z,9.63
2018-12-08T01:04:26.129Z,8.53
2018-12-08T01:06:28.842Z,6.00
2018-12-08T01:08:31.399Z,9.53
2018-12-08T01:10:33.943Z,6.33
2018-12-08T01:12:36.485Z,6.47
2018-12-08T01:14:39.085Z,3.33
2018-12-08T01:16:41.708Z,3.47
2018-12-08T01:18:44.257Z,4.47
2018-12-08T01:20:46.933Z,8.73
2018-12-08T01:22:49.474Z,4.23
2018-12-08T01:24:51.998Z,5.43
2018-12-08T01:26:54.573Z,4.83
2018-12-08T01:28:57.241Z,9.03
2018-12-08T01:30:59.756Z,4.57
2018-12-08T01:33:02.461Z,4.00
2018-12-08T01:35:05.176Z,4.43
2018-12-08T01:37:07.744Z,6.60
2018-12-08T01:39:10.273Z,5.73
2018-12-08T01:41:12.796Z,6.17
2018-12-08T01:43:15.376Z,6.33
2018-12-08T01:45:17.979Z,6.40
2018-12-08T01:47:20.606Z,6.43
2018-12-08T01:49:23.142Z,10.33
2018-12-08T01:51:25.754Z,5.97
2018-12-08T01:53:28.325Z,5.97
2018-12-08T01:55:30.910Z,5.70
2018-12-08T01:57:33.501Z,3.80
2018-12-08T01:59:36.218Z,4.80
2018-12-08T02:01:38.739Z,13.17
2018-12-08T02:03:41.322Z,5.60
2018-12-08T02:05:43.845Z,12.87
2018-12-08T02:07:46.361Z,7.83
2018-12-08T02:09:48.951Z,5.43
2018-12-08T02:11:51.478Z,9.30
2018-12-08T02:13:53.977Z,4.47
2018-12-08T02:15:56.677Z,4.33
2018-12-08T02:17:59.286Z,4.50
2018-12-08T02:20:01.911Z,3.37
2018-12-08T02:22:04.444Z,9.80
2018-12-08T02:24:07.167Z,6.47
2018-12-08T02:26:09.715Z,6.23
2018-12-08T02:28:12.481Z,7.77
2018-12-08T02:30:15.234Z,5.70
2018-12-08T02:32:17.731Z,3.10
2018-12-08T02:34:20.334Z,5.73
2018-12-08T02:36:22.905Z,3.90
2018-12-08T02:38:25.430Z,5.63
2018-12-08T02:40:28.093Z,5.60
2018-12-08T02:42:30.758Z,5.57
2018-12-08T02:44:33.290Z,4.47
2018-12-08T02:46:36.037Z,8.03
2018-12-08T02:48:38.554Z,7.37
2018-12-08T02:50:41.079Z,4.63
2018-12-08T02:52:43.625Z,3.83
2018-12-08T02:54:46.171Z,2.87
2018-12-08T02:56:48.713Z,4.37
2018-12-08T02:58:51.251Z,2.57
2018-12-08T03:00:53.788Z,3.23
2018-12-08T03:02:56.375Z,2.53
2018-12-08T03:04:58.884Z,2.27
2018-12-08T03:07:01.392Z,2.33
2018-12-08T03:09:06.733Z,3.00
2018-12-08T03:11:09.258Z,2.70
2018-12-08T03:13:11.800Z,5.60
2018-12-08T03:15:14.331Z,3.40
2018-12-08T03:17:16.933Z,4.83
2018-12-08T03:19:19.584Z,2.57
2018-12-08T03:21:22.080Z,2.37
2018-12-08T03:23:24.625Z,4.03
2018-12-08T03:25:27.211Z,1.30
2018-12-08T03:27:29.725Z,1.77
2018-12-08T03:29:32.298Z,3.83
2018-12-08T03:31:34.829Z,2.60
2018-12-08T03:33:37.437Z,3.37
2018-12-08T03:35:40.097Z,3.20
2018-12-08T03:37:42.658Z,5.90
2018-12-08T03:39:45.322Z,3.67
2018-12-08T03:41:47.863Z,2.77
2018-12-08T03:43:50.467Z,4.30
2018-12-08T03:45:53.063Z,3.40
2018-12-08T03:47:55.624Z,2.40
2018-12-08T03:49:58.258Z,2.40
2018-12-08T03:52:00.787Z,5.50
2018-12-08T03:54:03.516Z,2.03
2018-12-08T03:56:06.034Z,3.90
2018-12-08T03:58:08.559Z,3.57
2018-12-08T04:00:11.266Z,1.93
2018-12-08T04:02:13.804Z,4.63
2018-12-08T04:04:16.392Z,4.07
2018-12-08T04:06:18.938Z,5.90
2018-12-08T04:08:21.564Z,6.63
2018-12-08T04:10:24.188Z,2.97
2018-12-08T04:12:26.700Z,4.50
2018-12-08T04:14:29.283Z,7.70
2018-12-08T04:16:31.830Z,5.60
2018-12-08T04:18:34.488Z,3.67
2018-12-08T04:20:37.002Z,2.40
2018-12-08T04:22:39.540Z,6.70
2018-12-08T04:24:42.086Z,3.83
2018-12-08T04:26:44.598Z,5.63
2018-12-08T04:28:47.206Z,4.37
2018-12-08T04:30:49.777Z,2.80
2018-12-08T04:32:52.309Z,4.63
2018-12-08T04:34:54.830Z,3.30
2018-12-08T04:36:58.523Z,4.67
2018-12-08T04:39:01.137Z,4.10
2018-12-08T04:41:03.645Z,2.87
2018-12-08T04:43:06.165Z,3.90
2018-12-08T04:45:08.800Z,4.03
2018-12-08T04:47:11.348Z,7.10
2018-12-08T04:49:15.281Z,4.10
2018-12-08T04:51:17.795Z,3.63
2018-12-08T04:53:20.367Z,4.00
2018-12-08T04:55:22.947Z,2.63
2018-12-08T04:57:25.477Z,4.83
2018-12-08T04:59:28.043Z,4.37
2018-12-08T05:01:30.671Z,4.33
2018-12-08T05:03:33.267Z,7.83
2018-12-08T05:05:35.783Z,6.87
2018-12-08T05:07:38.341Z,3.70
2018-12-08T05:09:40.854Z,3.03
2018-12-08T05:11:43.399Z,3.43
2018-12-08T05:13:46.013Z,1.23
2018-12-08T05:15:48.590Z,4.63
2018-12-08T05:17:51.343Z,7.27
2018-12-08T05:19:53.857Z,3.73
2018-12-08T05:21:56.380Z,4.17
2018-12-08T05:23:58.940Z,4.70
2018-12-08T05:26:01.461Z,5.37
2018-12-08T05:28:03.974Z,4.47
2018-12-08T05:30:06.510Z,4.03
2018-12-08T05:32:09.062Z,6.17
2018-12-08T05:34:11.733Z,2.70
2018-12-08T05:36:14.258Z,5.03
2018-12-08T05:38:16.808Z,4.50
2018-12-08T05:40:19.334Z,4.97
2018-12-08T05:42:21.893Z,3.53
2018-12-08T05:44:24.433Z,2.47
2018-12-08T05:46:26.962Z,4.10
2018-12-08T05:48:29.501Z,2.77
2018-12-08T05:50:32.038Z,4.50
2018-12-08T05:52:34.767Z,3.93
2018-12-08T05:54:37.877Z,3.73
2018-12-08T05:56:40.545Z,3.70
2018-12-08T05:58:43.074Z,5.13
2018-12-08T06:00:45.601Z,5.93
2018-12-08T06:02:48.157Z,2.47
2018-12-08T06:04:50.782Z,3.70
2018-12-08T06:06:53.430Z,3.97
2018-12-08T06:08:56.025Z,6.37
2018-12-08T06:10:58.555Z,5.47
2018-12-08T06:13:01.081Z,7.00
2018-12-08T06:15:03.834Z,4.47
2018-12-08T06:17:06.416Z,4.77
2018-12-08T06:19:09.050Z,5.90
2018-12-08T06:21:11.678Z,5.57
2018-12-08T06:23:14.183Z,5.50
2018-12-08T06:25:18.634Z,3.80
2018-12-08T06:27:22.375Z,8.30
2018-12-08T06:29:25.223Z,4.53
2018-12-08T06:31:27.779Z,4.60
2018-12-08T06:33:30.349Z,6.43
2018-12-08T06:35:32.893Z,5.83
2018-12-08T06:37:35.482Z,5.63
2018-12-08T06:39:37.995Z,4.43
2018-12-08T06:41:40.648Z,2.50
2018-12-08T06:43:43.156Z,4.17
2018-12-08T06:45:45.694Z,4.40
2018-12-08T06:47:48.218Z,4.50
2018-12-08T06:49:50.794Z,2.20
2018-12-08T06:51:53.321Z,8.30
2018-12-08T06:53:55.852Z,8.10
2018-12-08T06:55:58.415Z,5.37
2018-12-08T06:58:01.060Z,5.10
2018-12-08T07:00:04.920Z,5.43
2018-12-08T07:02:07.464Z,5.77
2018-12-08T07:04:10.027Z,6.97
2018-12-08T07:06:12.594Z,6.20
2018-12-08T07:08:15.219Z,3.73
2018-12-08T07:10:17.733Z,4.23
2018-12-08T07:12:20.279Z,3.70
2018-12-08T07:14:22.866Z,4.63
2018-12-08T07:16:25.386Z,5.00
2018-12-08T07:18:27.999Z,2.70
2018-12-08T07:20:30.530Z,2.57
2018-12-08T07:22:37.901Z,3.97
2018-12-08T07:24:40.435Z,3.93
2018-12-08T07:26:43.094Z,3.67
2018-12-08T07:28:45.780Z,3.47
2018-12-08T07:30:48.329Z,5.57
2018-12-08T07:32:51.023Z,2.60
2018-12-08T07:34:54.006Z,6.30
2018-12-08T07:36:56.537Z,5.83
2018-12-08T07:38:59.065Z,7.30
2018-12-08T07:41:01.616Z,6.67
2018-12-08T07:43:04.150Z,4.33
2018-12-08T07:45:06.870Z,4.73
2018-12-08T07:47:09.988Z,4.57
2018-12-08T07:49:12.575Z,6.40
2018-12-08T07:51:15.150Z,6.63
2018-12-08T07:53:17.852Z,8.47
2018-12-08T07:55:20.355Z,4.80
2018-12-08T07:57:22.894Z,4.43
2018-12-08T07:59:25.395Z,4.47
2018-12-08T08:01:27.898Z,5.43
2018-12-08T08:03:30.497Z,4.37
2018-12-08T08:05:33.025Z,4.97
2018-12-08T08:07:35.549Z,2.73
2018-12-08T08:09:38.126Z,5.47
2018-12-08T09:23:02.659Z,10.03
2018-12-08T09:25:06.226Z,7.17
2018-12-08T09:27:08.765Z,7.07
2018-12-08T09:29:11.418Z,8.33
2018-12-08T09:31:14.042Z,5.40
2018-12-08T09:33:16.930Z,5.13
2018-12-08T09:35:19.501Z,7.53
2018-12-08T09:37:22.134Z,7.53
2018-12-08T09:41:45.178Z,7.97
2018-12-08T09:43:47.747Z,4.67
2018-12-08T09:45:50.273Z,5.43
2018-12-08T09:47:52.893Z,5.07
2018-12-08T09:49:55.449Z,7.03
2018-12-08T09:51:57.966Z,4.80
2018-12-08T09:54:00.527Z,5.43
2018-12-08T09:56:03.287Z,7.57
2018-12-08T09:58:05.832Z,5.27
2018-12-08T10:00:08.381Z,7.23
2018-12-08T10:02:10.949Z,2.93
2018-12-08T10:04:13.682Z,5.73
2018-12-08T10:06:16.203Z,5.00
2018-12-08T10:08:18.894Z,3.17
2018-12-08T10:10:21.446Z,3.33
2018-12-08T10:12:24.084Z,7.27
2018-12-08T10:14:26.661Z,1.70
2018-12-08T10:16:29.324Z,3.90
2018-12-08T10:18:31.848Z,2.97
2018-12-08T10:20:34.718Z,4.57
2018-12-08T10:22:37.387Z,2.13
2018-12-08T10:24:39.994Z,2.70
2018-12-08T10:26:42.679Z,5.20
2018-12-08T10:28:45.382Z,5.57
2018-12-08T10:30:47.947Z,3.33
2018-12-08T10:32:50.590Z,5.27
2018-12-08T10:34:53.190Z,3.07
2018-12-08T10:36:55.824Z,2.30
2018-12-08T10:38:58.487Z,2.27
2018-12-08T10:41:01.001Z,2.73
2018-12-08T10:43:03.541Z,4.43
2018-12-08T10:45:06.491Z,3.40
2018-12-08T10:47:08.998Z,4.10
2018-12-08T10:49:11.575Z,3.33
2018-12-08T10:51:14.206Z,5.00
2018-12-08T10:53:16.747Z,3.90
2018-12-08T10:55:19.351Z,3.90
2018-12-08T10:57:22.117Z,3.97
2018-12-08T10:59:24.864Z,3.00
2018-12-08T11:01:29.517Z,3.10
2018-12-08T11:03:49.148Z,2.70
2018-12-08T11:05:51.826Z,3.33
2018-12-08T11:07:54.858Z,3.33
2018-12-08T11:09:57.451Z,4.53
2018-12-08T11:11:59.996Z,5.20
2018-12-08T11:14:02.556Z,3.00
2018-12-08T11:16:05.222Z,3.87
2018-12-08T11:18:07.868Z,5.03
2018-12-08T11:20:10.385Z,4.33
2018-12-08T11:24:06.774Z,5.90
2018-12-08T11:26:09.558Z,3.80
2018-12-08T11:28:12.154Z,4.87
2018-12-08T11:30:14.764Z,6.57
2018-12-08T11:32:17.429Z,3.90
2018-12-08T11:34:20.060Z,5.80
2018-12-08T11:36:22.553Z,4.40
2018-12-08T11:38:25.459Z,4.23
2018-12-08T11:40:27.968Z,2.73
2018-12-08T11:42:30.567Z,3.83
2018-12-08T11:44:33.545Z,5.17
2018-12-08T11:46:36.167Z,5.13
2018-12-08T11:48:38.814Z,6.17
2018-12-08T11:50:41.393Z,4.93
2018-12-08T11:52:43.941Z,6.73
2018-12-08T11:54:46.530Z,7.73
2018-12-08T11:56:49.071Z,6.87
2018-12-08T11:58:51.592Z,9.27
2018-12-08T12:00:54.150Z,7.63
2018-12-08T12:02:56.696Z,5.87
2018-12-08T12:04:59.222Z,7.00
2018-12-08T12:07:01.837Z,6.03
2018-12-08T12:09:05.857Z,7.83
2018-12-08T12:11:08.550Z,7.10
2018-12-08T12:13:11.303Z,4.20
2018-12-08T12:15:13.875Z,6.00
2018-12-08T12:17:16.558Z,3.50
2018-12-08T12:19:19.195Z,7.60
2018-12-08T12:21:21.867Z,7.23
2018-12-08T12:23:24.371Z,4.83
2018-12-08T12:25:27.118Z,4.30
2018-12-08T12:27:29.667Z,5.87
2018-12-08T12:29:32.253Z,4.13
2018-12-08T12:31:34.832Z,3.20
2018-12-08T12:33:37.616Z,6.03
2018-12-08T12:35:40.155Z,4.40
2018-12-08T12:37:42.676Z,2.33
2018-12-08T12:39:45.360Z,6.37
2018-12-08T12:41:47.969Z,5.10
2018-12-08T12:43:50.653Z,5.00
2018-12-08T12:45:53.212Z,5.13
2018-12-08T12:47:55.782Z,4.97
2018-12-08T12:49:58.366Z,6.53
2018-12-08T12:52:00.987Z,4.07
2018-12-08T12:54:03.584Z,6.77
2018-12-08T12:56:06.225Z,4.40
2018-12-08T12:58:08.782Z,2.87
2018-12-08T13:00:12.033Z,4.57
2018-12-08T13:02:14.595Z,4.63
2018-12-08T13:04:17.229Z,5.13
2018-12-08T13:06:19.842Z,3.57
2018-12-08T13:08:22.359Z,4.07
2018-12-08T13:10:24.968Z,4.13
2018-12-08T13:12:27.694Z,4.50
2018-12-08T13:14:30.354Z,5.13
2018-12-08T13:16:33.023Z,2.87
2018-12-08T13:18:35.559Z,2.00
2018-12-08T13:20:41.254Z,2.70
2018-12-08T13:22:45.033Z,5.10
2018-12-08T13:24:47.577Z,5.23
2018-12-08T13:26:50.130Z,3.67
2018-12-08T13:28:52.740Z,4.13
2018-12-08T13:30:55.286Z,5.70
2018-12-08T13:32:57.836Z,2.50
2018-12-08T13:35:00.338Z,2.13
2018-12-08T13:37:02.947Z,3.70
2018-12-08T13:39:05.645Z,2.00
2018-12-08T13:41:08.227Z,2.43
2018-12-08T13:43:10.798Z,2.17
2018-12-08T13:45:15.659Z,2.23
2018-12-08T13:47:18.332Z,3.17
2018-12-08T13:49:20.934Z,2.00
2018-12-08T13:51:23.709Z,1.47
2018-12-08T13:53:26.226Z,1.30
2018-12-08T13:55:28.758Z,1.17
2018-12-08T13:57:31.435Z,1.63
2018-12-08T13:59:33.967Z,1.90
2018-12-08T14:01:36.534Z,2.57
2018-12-08T14:03:39.065Z,2.07
2018-12-08T14:05:41.695Z,1.20
2018-12-08T14:07:44.413Z,1.50
2018-12-08T14:09:46.986Z,1.70
2018-12-08T14:11:49.546Z,2.53
2018-12-08T14:13:52.061Z,2.37
2018-12-08T14:15:54.674Z,3.30
2018-12-08T14:17:57.194Z,1.50
2018-12-08T14:20:11.757Z,2.30
2018-12-08T14:22:14.339Z,1.97
2018-12-08T14:24:17.033Z,1.73
2018-12-08T14:26:19.631Z,1.53
2018-12-08T14:28:22.174Z,1.60
2018-12-08T14:30:24.771Z,2.83
2018-12-08T14:32:27.322Z,3.73
2018-12-08T14:34:29.841Z,3.93
2018-12-08T14:36:32.467Z,3.80
2018-12-08T14:38:35.073Z,1.70
2018-12-08T14:40:37.738Z,1.93
2018-12-08T14:42:40.268Z,2.80
2018-12-08T14:44:42.901Z,1.97
2018-12-08T14:46:45.416Z,4.17
2018-12-08T14:48:47.967Z,2.43
2018-12-08T14:50:50.582Z,4.40
2018-12-08T14:52:53.133Z,2.80
2018-12-08T14:54:55.881Z,2.37
2018-12-08T14:56:58.601Z,1.87
2018-12-08T14:59:01.327Z,2.67
2018-12-08T15:01:03.870Z,1.40
2018-12-08T15:03:06.534Z,2.40
2018-12-08T15:05:09.316Z,2.17
2018-12-08T15:07:11.956Z,3.60
2018-12-08T15:09:14.509Z,3.37
2018-12-08T15:11:17.021Z,2.40
2018-12-08T15:13:19.530Z,2.37
2018-12-08T15:15:22.075Z,2.47
2018-12-08T15:17:24.631Z,4.87
2018-12-08T15:19:27.223Z,2.90
2018-12-08T15:21:29.769Z,4.27
2018-12-08T15:23:32.346Z,4.63
2018-12-08T15:25:34.911Z,6.73
2018-12-08T15:27:37.692Z,6.80
2018-12-08T15:29:40.221Z,2.43
2018-12-08T15:31:42.858Z,1.33
2018-12-08T15:33:45.482Z,3.23
2018-12-08T15:35:48.090Z,4.07
2018-12-08T15:37:50.635Z,0.97
2018-12-08T15:39:53.318Z,2.03
2018-12-08T15:41:55.983Z,2.63
2018-12-08T15:43:58.557Z,1.73
2018-12-08T15:46:01.154Z,3.57
2018-12-08T15:48:03.908Z,2.23
2018-12-08T15:50:07.518Z,3.63
2018-12-08T15:52:10.177Z,2.53
2018-12-08T15:54:12.777Z,2.57
2018-12-08T15:56:15.369Z,2.73
2018-12-08T15:58:18.021Z,2.37
2018-12-08T16:00:20.574Z,2.70
2018-12-08T16:02:24.151Z,2.40
2018-12-08T16:04:26.974Z,3.10
2018-12-08T16:06:29.512Z,2.83
2018-12-08T16:08:32.038Z,3.73
2018-12-08T16:10:34.622Z,2.07
2018-12-08T16:12:37.236Z,3.57
2018-12-08T16:14:39.894Z,4.93
2018-12-08T16:16:42.439Z,6.37
2018-12-08T16:18:44.950Z,5.97
2018-12-08T16:20:47.554Z,3.20
2018-12-08T16:22:50.115Z,2.13
2018-12-08T16:24:52.663Z,2.77
2018-12-08T16:26:55.306Z,4.07
2018-12-08T16:28:57.855Z,4.50
2018-12-08T16:31:00.389Z,2.50
2018-12-08T16:33:03.002Z,2.33
2018-12-08T16:35:05.730Z,3.20
2018-12-08T16:37:08.337Z,1.60
2018-12-08T16:39:10.990Z,2.43
2018-12-08T16:41:13.597Z,3.43
2018-12-08T16:43:16.279Z,2.80
2018-12-08T16:45:18.936Z,1.90
2018-12-08T16:47:21.606Z,1.10
2018-12-08T16:49:24.246Z,6.07
2018-12-08T16:51:26.769Z,3.17
2018-12-08T16:53:29.282Z,5.03
2018-12-08T16:55:31.893Z,4.53
2018-12-08T16:57:34.523Z,2.17
2018-12-08T16:59:37.159Z,2.83
2018-12-08T17:01:40.891Z,2.03
2018-12-08T17:03:43.523Z,2.83
2018-12-08T17:05:46.035Z,3.00
2018-12-08T17:07:48.681Z,3.53
2018-12-08T17:09:51.417Z,1.63
2018-12-08T17:11:54.073Z,2.77
2018-12-08T17:13:56.634Z,7.50
2018-12-08T17:15:59.191Z,4.40
2018-12-08T17:18:01.729Z,3.03
2018-12-08T17:20:06.328Z,2.37
2018-12-08T17:22:09.112Z,3.00
2018-12-08T17:24:11.724Z,3.00
2018-12-08T17:26:14.385Z,2.43
2018-12-08T17:28:16.945Z,2.73
2018-12-08T17:30:19.583Z,5.67
2018-12-08T17:32:22.155Z,5.77
2018-12-08T17:34:24.809Z,2.90
2018-12-08T17:36:27.353Z,3.40
2018-12-08T17:38:30.058Z,4.07
2018-12-08T17:40:32.711Z,1.10
2018-12-08T17:42:35.260Z,2.47
2018-12-08T17:44:37.809Z,2.07
2018-12-08T17:46:40.470Z,2.17
2018-12-08T17:48:43.124Z,2.60
2018-12-08T17:50:45.790Z,6.10
2018-12-08T17:52:48.456Z,2.00
2018-12-08T17:54:51.138Z,3.53
2018-12-08T17:56:53.728Z,2.03
2018-12-08T17:58:56.389Z,1.53
2018-12-08T18:00:59.091Z,2.00
2018-12-08T18:03:01.626Z,2.27
2018-12-08T18:05:04.621Z,1.30
2018-12-08T18:07:07.218Z,1.70
2018-12-08T18:09:10.421Z,3.10
2018-12-08T18:11:13.725Z,2.53
2018-12-08T18:13:17.819Z,1.20
2018-12-08T18:15:20.365Z,1.90
2018-12-08T18:17:23.030Z,2.17
2018-12-08T18:19:25.553Z,3.37
2018-12-08T18:21:28.277Z,4.20
2018-12-08T18:23:30.883Z,2.20
2018-12-08T18:25:33.510Z,2.60
2018-12-08T18:27:36.123Z,4.30
2018-12-08T18:29:38.835Z,3.13
2018-12-08T18:31:41.453Z,4.33
2018-12-08T18:33:44.485Z,2.47
2018-12-08T18:35:47.264Z,2.53
2018-12-08T18:37:49.826Z,3.70
2018-12-08T18:39:52.425Z,3.10
2018-12-08T18:41:55.187Z,2.63
2018-12-08T18:43:57.830Z,5.00
2018-12-08T18:46:00.404Z,1.90
2018-12-08T18:48:02.942Z,3.57
2018-12-08T18:50:07.554Z,1.43
2018-12-08T18:52:10.169Z,5.13
2018-12-08T18:54:12.762Z,3.50
2018-12-08T18:56:15.327Z,3.87
2018-12-08T18:58:17.874Z,3.50
2018-12-08T19:00:20.402Z,3.90
2018-12-08T19:02:22.999Z,3.73
2018-12-08T19:04:25.548Z,3.37
2018-12-08T19:06:28.278Z,2.53
2018-12-08T19:08:30.803Z,5.90
2018-12-08T19:10:35.371Z,4.37
2018-12-08T19:12:52.976Z,5.90
2018-12-08T19:14:55.607Z,4.60
2018-12-08T19:16:58.178Z,3.67
2018-12-08T19:19:00.709Z,3.57
2018-12-08T19:21:03.211Z,6.17
2018-12-08T19:23:05.827Z,7.00
2018-12-08T19:25:08.446Z,2.40
2018-12-08T19:27:11.127Z,2.60
2018-12-08T19:29:13.760Z,5.90
2018-12-08T19:31:16.282Z,4.93
2018-12-08T19:33:18.911Z,3.67
2018-12-08T19:35:21.438Z,5.80
2018-12-08T19:37:24.040Z,5.90
2018-12-08T19:39:26.619Z,5.20
2018-12-08T19:41:29.308Z,8.97
2018-12-08T19:43:31.903Z,6.67
2018-12-08T19:45:34.449Z,8.97
2018-12-08T19:47:37.061Z,7.20
2018-12-08T19:49:39.647Z,5.87
2018-12-08T19:51:42.200Z,6.03
2018-12-08T19:53:44.844Z,7.23
2018-12-08T19:55:47.630Z,8.27
2018-12-08T19:57:50.162Z,5.73
2018-12-08T19:59:52.779Z,7.27
2018-12-08T20:01:55.367Z,2.67
2018-12-08T20:03:57.907Z,5.10
2018-12-08T20:06:00.480Z,5.13
2018-12-08T20:08:03.049Z,4.27
2018-12-08T20:10:06.873Z,7.10
2018-12-08T20:12:09.443Z,6.07
2018-12-08T20:14:12.005Z,6.40
2018-12-08T20:16:14.527Z,5.23
2018-12-08T20:18:17.095Z,7.00
2018-12-08T20:20:19.629Z,4.20
2018-12-08T20:22:22.244Z,8.93
2018-12-08T20:24:24.934Z,5.97
2018-12-08T20:26:27.530Z,8.17
2018-12-08T20:28:30.155Z,6.30
2018-12-08T20:30:32.821Z,5.83
2018-12-08T20:32:35.449Z,7.67
2018-12-08T20:34:38.115Z,5.27
2018-12-08T20:36:40.879Z,6.00
2018-12-08T20:38:43.487Z,4.33
2018-12-08T20:40:46.056Z,6.80
2018-12-08T20:42:48.708Z,3.30
2018-12-08T20:44:51.308Z,4.23
2018-12-08T20:46:53.993Z,2.87
2018-12-08T20:48:56.531Z,3.00
2018-12-08T20:50:59.180Z,3.13
2018-12-08T20:53:01.787Z,4.47
2018-12-08T20:55:04.858Z,3.90
2018-12-08T20:57:07.454Z,4.73
2018-12-08T20:59:09.983Z,2.10
2018-12-08T21:01:12.517Z,3.93
2018-12-08T21:03:15.185Z,4.03
2018-12-08T21:05:17.747Z,2.90
2018-12-08T21:07:20.410Z,3.13
2018-12-08T21:09:22.994Z,4.83
2018-12-08T21:11:25.653Z,2.57
2018-12-08T21:13:28.354Z,4.13
2018-12-08T21:15:31.118Z,3.50
2018-12-08T21:17:33.642Z,4.43
2018-12-08T21:19:36.256Z,4.00
2018-12-08T21:21:38.936Z,1.57
2018-12-08T21:23:41.537Z,2.40
2018-12-08T21:25:44.217Z,2.50
2018-12-08T21:27:46.749Z,3.73
2018-12-08T21:29:49.302Z,2.60
2018-12-08T21:31:51.838Z,2.07
2018-12-08T21:33:54.414Z,3.83
2018-12-08T21:35:57.087Z,1.43
2018-12-08T21:37:59.612Z,2.40
2018-12-08T21:40:02.161Z,1.33
2018-12-08T21:42:04.785Z,1.70
2018-12-08T21:44:07.936Z,1.60
2018-12-08T21:46:10.956Z,1.73
2018-12-08T21:48:13.614Z,1.47
2018-12-08T21:50:16.209Z,1.97
2018-12-08T21:52:18.875Z,2.50
2018-12-08T21:54:21.630Z,1.50
2018-12-08T21:56:24.300Z,0.90
2018-12-08T21:58:26.857Z,0.90
2018-12-08T22:00:29.485Z,2.00
2018-12-08T22:02:32.199Z,1.97
2018-12-08T22:04:34.713Z,1.17
2018-12-08T22:06:37.263Z,1.07
2018-12-08T22:08:39.810Z,1.10
2018-12-08T22:10:42.398Z,1.37
2018-12-08T22:12:45.077Z,1.20
2018-12-08T22:14:53.302Z,1.63
2018-12-08T22:16:55.879Z,1.10
2018-12-08T22:18:58.515Z,1.27
2018-12-08T22:21:01.173Z,2.50
2018-12-08T22:23:04.051Z,2.70
2018-12-08T22:25:06.701Z,1.53
2018-12-08T22:27:09.338Z,1.70
2018-12-08T22:29:11.882Z,1.00
2018-12-08T22:31:14.458Z,1.30
2018-12-08T22:33:17.307Z,1.50
2018-12-08T22:35:19.907Z,1.23
2018-12-08T22:37:22.525Z,1.33
2018-12-08T22:39:25.046Z,1.63
2018-12-08T22:41:27.643Z,1.87
2018-12-08T22:43:30.236Z,2.03
2018-12-08T22:45:32.770Z,1.87
2018-12-08T22:47:35.365Z,2.50
2018-12-08T22:49:37.972Z,2.43
2018-12-08T22:51:40.596Z,2.33
2018-12-08T22:53:43.270Z,1.80
2018-12-08T22:55:49.779Z,2.60
2018-12-08T22:57:52.319Z,1.30
2018-12-08T22:59:54.837Z,1.73
2018-12-08T23:01:57.428Z,3.83
2018-12-08T23:04:00.111Z,2.23
2018-12-08T23:06:02.741Z,2.50
2018-12-08T23:08:05.431Z,1.67
2018-12-08T23:10:08.055Z,1.43
2018-12-08T23:12:10.707Z,2.10
2018-12-08T23:14:13.318Z,3.17
2018-12-08T23:16:16.109Z,2.60
2018-12-08T23:18:18.725Z,1.73
2018-12-08T23:20:21.336Z,1.63
2018-12-08T23:22:23.858Z,3.20
2018-12-08T23:24:26.391Z,1.73
2018-12-08T23:26:28.972Z,2.10
2018-12-08T23:28:31.502Z,1.20
2018-12-08T23:30:34.090Z,2.57
2018-12-08T23:32:36.692Z,1.57
2018-12-08T23:34:39.251Z,2.73
2018-12-08T23:36:41.823Z,1.10
2018-12-08T23:38:44.412Z,3.90
2018-12-08T23:40:47.023Z,1.53
2018-12-08T23:42:49.545Z,0.97
2018-12-08T23:44:52.095Z,1.07
2018-12-08T23:46:54.802Z,1.37
2018-12-08T23:48:57.351Z,1.43
2018-12-08T23:50:59.976Z,0.80
2018-12-08T23:53:02.673Z,1.10
2018-12-08T23:55:05.303Z,2.77
2018-12-08T23:57:07.931Z,2.97
2018-12-08T23:59:10.539Z,1.20
